sensor_id;sensor_type;location;lat;lon;timestamp;P1;durP1;ratioP1;P2;durP2;ratioP2
75941;SDS011;64622;46.220;19.878;2024-03-06T00:00:51;41.05;;;17.70;;
75941;SDS011;64622;46.220;19.878;2024-03-06T00:03:18;46.28;;;17.85;;
75941;SDS011;64622;46.220;19.878;2024-03-06T00:05:44;41.72;;;17.48;;
75941;SDS011;64622;46.220;19.878;2024-03-06T00:08:11;42.17;;;16.80;;
75941;SDS011;64622;46.220;19.878;2024-03-06T00:10:38;41.10;;;17.20;;
75941;SDS011;64622;46.220;19.878;2024-03-06T00:13:04;43.58;;;18.95;;
75941;SDS011;64622;46.220;19.878;2024-03-06T00:15:31;47.70;;;18.95;;
75941;SDS011;64622;46.220;19.878;2024-03-06T00:17:58;45.10;;;18.20;;
75941;SDS011;64622;46.220;19.878;2024-03-06T00:20:24;44.67;;;19.93;;
75941;SDS011;64622;46.220;19.878;2024-03-06T00:22:51;46.88;;;20.62;;
75941;SDS011;64622;46.220;19.878;2024-03-06T00:25:18;45.38;;;20.23;;
75941;SDS011;64622;46.220;19.878;2024-03-06T00:27:45;45.65;;;19.00;;
75941;SDS011;64622;46.220;19.878;2024-03-06T00:30:11;48.38;;;18.62;;
75941;SDS011;64622;46.220;19.878;2024-03-06T00:32:38;37.50;;;16.80;;
75941;SDS011;64622;46.220;19.878;2024-03-06T00:35:05;47.80;;;18.55;;
75941;SDS011;64622;46.220;19.878;2024-03-06T00:37:32;45.70;;;19.25;;
75941;SDS011;64622;46.220;19.878;2024-03-06T00:39:59;45.03;;;19.52;;
75941;SDS011;64622;46.220;19.878;2024-03-06T00:42:25;47.70;;;19.30;;
75941;SDS011;64622;46.220;19.878;2024-03-06T00:44:52;49.57;;;20.03;;
75941;SDS011;64622;46.220;19.878;2024-03-06T00:47:19;46.75;;;19.45;;
75941;SDS011;64622;46.220;19.878;2024-03-06T00:49:47;45.95;;;19.35;;
75941;SDS011;64622;46.220;19.878;2024-03-06T00:52:13;48.28;;;20.08;;
75941;SDS011;64622;46.220;19.878;2024-03-06T00:54:40;51.10;;;20.00;;
75941;SDS011;64622;46.220;19.878;2024-03-06T00:57:07;48.47;;;20.07;;
75941;SDS011;64622;46.220;19.878;2024-03-06T00:59:33;45.92;;;19.10;;
75941;SDS011;64622;46.220;19.878;2024-03-06T01:02:00;49.28;;;19.98;;
75941;SDS011;64622;46.220;19.878;2024-03-06T01:04:27;42.22;;;18.52;;
75941;SDS011;64622;46.220;19.878;2024-03-06T01:06:53;42.88;;;18.37;;
75941;SDS011;64622;46.220;19.878;2024-03-06T01:09:20;53.93;;;18.73;;
75941;SDS011;64622;46.220;19.878;2024-03-06T01:11:46;44.40;;;17.23;;
75941;SDS011;64622;46.220;19.878;2024-03-06T01:14:13;55.83;;;20.73;;
75941;SDS011;64622;46.220;19.878;2024-03-06T01:16:41;44.78;;;19.02;;
75941;SDS011;64622;46.220;19.878;2024-03-06T01:19:07;48.33;;;20.42;;
75941;SDS011;64622;46.220;19.878;2024-03-06T01:21:33;45.47;;;17.70;;
75941;SDS011;64622;46.220;19.878;2024-03-06T01:24:01;48.53;;;18.73;;
75941;SDS011;64622;46.220;19.878;2024-03-06T01:26:27;48.10;;;19.48;;
75941;SDS011;64622;46.220;19.878;2024-03-06T01:28:53;46.72;;;19.75;;
75941;SDS011;64622;46.220;19.878;2024-03-06T01:31:20;45.78;;;19.37;;
75941;SDS011;64622;46.220;19.878;2024-03-06T01:33:47;45.53;;;18.23;;
75941;SDS011;64622;46.220;19.878;2024-03-06T01:36:13;48.90;;;18.65;;
75941;SDS011;64622;46.220;19.878;2024-03-06T01:38:40;44.20;;;19.40;;
75941;SDS011;64622;46.220;19.878;2024-03-06T01:41:07;49.22;;;20.15;;
75941;SDS011;64622;46.220;19.878;2024-03-06T01:43:36;48.87;;;19.67;;
75941;SDS011;64622;46.220;19.878;2024-03-06T01:46:05;47.60;;;19.30;;
75941;SDS011;64622;46.220;19.878;2024-03-06T01:48:32;45.75;;;19.42;;
75941;SDS011;64622;46.220;19.878;2024-03-06T01:51:00;55.45;;;20.00;;
75941;SDS011;64622;46.220;19.878;2024-03-06T01:53:31;45.63;;;18.52;;
75941;SDS011;64622;46.220;19.878;2024-03-06T01:55:59;43.75;;;18.12;;
75941;SDS011;64622;46.220;19.878;2024-03-06T01:58:27;49.50;;;19.07;;
75941;SDS011;64622;46.220;19.878;2024-03-06T02:00:54;48.80;;;17.87;;
75941;SDS011;64622;46.220;19.878;2024-03-06T02:03:21;47.25;;;19.87;;
75941;SDS011;64622;46.220;19.878;2024-03-06T02:05:48;45.40;;;18.48;;
75941;SDS011;64622;46.220;19.878;2024-03-06T02:08:16;49.97;;;18.60;;
75941;SDS011;64622;46.220;19.878;2024-03-06T02:10:43;48.40;;;19.80;;
75941;SDS011;64622;46.220;19.878;2024-03-06T02:13:11;46.37;;;19.98;;
75941;SDS011;64622;46.220;19.878;2024-03-06T02:15:38;46.22;;;18.08;;
75941;SDS011;64622;46.220;19.878;2024-03-06T02:18:05;49.67;;;20.88;;
75941;SDS011;64622;46.220;19.878;2024-03-06T02:20:32;45.60;;;19.80;;
75941;SDS011;64622;46.220;19.878;2024-03-06T02:23:00;51.03;;;19.60;;
75941;SDS011;64622;46.220;19.878;2024-03-06T02:25:27;42.95;;;18.58;;
75941;SDS011;64622;46.220;19.878;2024-03-06T02:27:54;53.83;;;20.40;;
75941;SDS011;64622;46.220;19.878;2024-03-06T02:30:21;51.75;;;20.00;;
75941;SDS011;64622;46.220;19.878;2024-03-06T02:32:47;51.22;;;18.98;;
75941;SDS011;64622;46.220;19.878;2024-03-06T02:35:14;45.70;;;18.57;;
75941;SDS011;64622;46.220;19.878;2024-03-06T02:37:41;46.92;;;17.67;;
75941;SDS011;64622;46.220;19.878;2024-03-06T02:40:10;48.03;;;18.55;;
75941;SDS011;64622;46.220;19.878;2024-03-06T02:42:37;46.28;;;18.33;;
75941;SDS011;64622;46.220;19.878;2024-03-06T02:45:05;50.92;;;20.73;;
75941;SDS011;64622;46.220;19.878;2024-03-06T02:47:34;49.17;;;19.03;;
75941;SDS011;64622;46.220;19.878;2024-03-06T02:50:00;47.17;;;17.92;;
75941;SDS011;64622;46.220;19.878;2024-03-06T02:52:27;51.70;;;19.05;;
75941;SDS011;64622;46.220;19.878;2024-03-06T02:54:54;51.45;;;20.37;;
75941;SDS011;64622;46.220;19.878;2024-03-06T02:57:20;52.60;;;20.48;;
75941;SDS011;64622;46.220;19.878;2024-03-06T02:59:47;51.17;;;19.30;;
75941;SDS011;64622;46.220;19.878;2024-03-06T03:02:14;46.28;;;17.05;;
75941;SDS011;64622;46.220;19.878;2024-03-06T03:04:41;54.20;;;20.23;;
75941;SDS011;64622;46.220;19.878;2024-03-06T03:07:07;51.97;;;19.48;;
75941;SDS011;64622;46.220;19.878;2024-03-06T03:09:34;50.58;;;19.62;;
75941;SDS011;64622;46.220;19.878;2024-03-06T03:12:02;52.03;;;20.07;;
75941;SDS011;64622;46.220;19.878;2024-03-06T03:14:29;48.90;;;20.17;;
75941;SDS011;64622;46.220;19.878;2024-03-06T03:16:56;48.97;;;19.17;;
75941;SDS011;64622;46.220;19.878;2024-03-06T03:19:22;51.95;;;20.48;;
75941;SDS011;64622;46.220;19.878;2024-03-06T03:21:49;48.42;;;19.40;;
75941;SDS011;64622;46.220;19.878;2024-03-06T03:24:16;56.43;;;20.03;;
75941;SDS011;64622;46.220;19.878;2024-03-06T03:26:42;54.65;;;19.42;;
75941;SDS011;64622;46.220;19.878;2024-03-06T03:29:08;44.20;;;18.75;;
75941;SDS011;64622;46.220;19.878;2024-03-06T03:31:35;49.55;;;20.10;;
75941;SDS011;64622;46.220;19.878;2024-03-06T03:34:05;48.78;;;19.23;;
75941;SDS011;64622;46.220;19.878;2024-03-06T03:36:32;57.27;;;20.17;;
75941;SDS011;64622;46.220;19.878;2024-03-06T03:38:59;54.28;;;20.20;;
75941;SDS011;64622;46.220;19.878;2024-03-06T03:41:26;58.28;;;21.50;;
75941;SDS011;64622;46.220;19.878;2024-03-06T03:43:52;57.42;;;19.30;;
75941;SDS011;64622;46.220;19.878;2024-03-06T03:46:19;46.28;;;18.45;;
75941;SDS011;64622;46.220;19.878;2024-03-06T03:48:46;54.83;;;18.10;;
75941;SDS011;64622;46.220;19.878;2024-03-06T03:51:12;49.83;;;18.45;;
75941;SDS011;64622;46.220;19.878;2024-03-06T03:53:39;50.97;;;20.37;;
75941;SDS011;64622;46.220;19.878;2024-03-06T03:56:05;50.25;;;19.12;;
75941;SDS011;64622;46.220;19.878;2024-03-06T03:58:32;49.60;;;17.83;;
75941;SDS011;64622;46.220;19.878;2024-03-06T04:00:59;49.73;;;19.23;;
75941;SDS011;64622;46.220;19.878;2024-03-06T04:03:26;54.65;;;19.58;;
75941;SDS011;64622;46.220;19.878;2024-03-06T04:05:52;48.22;;;18.65;;
75941;SDS011;64622;46.220;19.878;2024-03-06T04:08:19;53.20;;;18.90;;
75941;SDS011;64622;46.220;19.878;2024-03-06T04:10:46;53.05;;;19.60;;
75941;SDS011;64622;46.220;19.878;2024-03-06T04:13:14;56.27;;;20.00;;
75941;SDS011;64622;46.220;19.878;2024-03-06T04:15:41;56.50;;;19.42;;
75941;SDS011;64622;46.220;19.878;2024-03-06T04:18:08;51.75;;;19.33;;
75941;SDS011;64622;46.220;19.878;2024-03-06T04:20:35;53.78;;;18.83;;
75941;SDS011;64622;46.220;19.878;2024-03-06T04:23:01;57.00;;;19.10;;
75941;SDS011;64622;46.220;19.878;2024-03-06T04:25:28;50.27;;;18.47;;
75941;SDS011;64622;46.220;19.878;2024-03-06T04:27:55;46.20;;;16.12;;
75941;SDS011;64622;46.220;19.878;2024-03-06T04:30:21;43.95;;;17.08;;
75941;SDS011;64622;46.220;19.878;2024-03-06T04:32:48;49.42;;;19.12;;
75941;SDS011;64622;46.220;19.878;2024-03-06T04:35:15;50.47;;;17.95;;
75941;SDS011;64622;46.220;19.878;2024-03-06T04:37:41;55.83;;;20.07;;
75941;SDS011;64622;46.220;19.878;2024-03-06T04:40:10;59.38;;;21.45;;
75941;SDS011;64622;46.220;19.878;2024-03-06T04:42:37;56.53;;;18.67;;
75941;SDS011;64622;46.220;19.878;2024-03-06T04:45:04;49.90;;;18.92;;
75941;SDS011;64622;46.220;19.878;2024-03-06T04:47:37;47.75;;;18.05;;
75941;SDS011;64622;46.220;19.878;2024-03-06T04:50:07;51.43;;;18.63;;
75941;SDS011;64622;46.220;19.878;2024-03-06T04:52:35;51.58;;;19.15;;
75941;SDS011;64622;46.220;19.878;2024-03-06T04:55:03;48.87;;;19.40;;
75941;SDS011;64622;46.220;19.878;2024-03-06T04:57:30;54.20;;;19.30;;
75941;SDS011;64622;46.220;19.878;2024-03-06T04:59:57;57.03;;;19.52;;
75941;SDS011;64622;46.220;19.878;2024-03-06T05:02:24;46.33;;;18.00;;
75941;SDS011;64622;46.220;19.878;2024-03-06T05:04:52;56.22;;;19.62;;
75941;SDS011;64622;46.220;19.878;2024-03-06T05:07:18;55.20;;;19.35;;
75941;SDS011;64622;46.220;19.878;2024-03-06T05:09:45;51.33;;;19.02;;
75941;SDS011;64622;46.220;19.878;2024-03-06T05:12:11;59.47;;;22.10;;
75941;SDS011;64622;46.220;19.878;2024-03-06T05:14:38;63.23;;;23.27;;
75941;SDS011;64622;46.220;19.878;2024-03-06T05:17:05;63.65;;;24.05;;
75941;SDS011;64622;46.220;19.878;2024-03-06T05:19:31;56.60;;;23.25;;
75941;SDS011;64622;46.220;19.878;2024-03-06T05:21:58;62.53;;;26.45;;
75941;SDS011;64622;46.220;19.878;2024-03-06T05:24:26;60.00;;;23.27;;
75941;SDS011;64622;46.220;19.878;2024-03-06T05:26:52;56.70;;;22.27;;
75941;SDS011;64622;46.220;19.878;2024-03-06T05:29:19;56.37;;;19.98;;
75941;SDS011;64622;46.220;19.878;2024-03-06T05:31:46;56.37;;;19.35;;
75941;SDS011;64622;46.220;19.878;2024-03-06T05:34:12;55.70;;;19.08;;
75941;SDS011;64622;46.220;19.878;2024-03-06T05:36:38;52.58;;;19.20;;
75941;SDS011;64622;46.220;19.878;2024-03-06T05:39:05;59.13;;;21.70;;
75941;SDS011;64622;46.220;19.878;2024-03-06T05:41:38;69.72;;;23.77;;
75941;SDS011;64622;46.220;19.878;2024-03-06T05:44:08;63.85;;;21.92;;
75941;SDS011;64622;46.220;19.878;2024-03-06T05:46:34;72.55;;;28.55;;
75941;SDS011;64622;46.220;19.878;2024-03-06T05:49:02;104.47;;;39.40;;
75941;SDS011;64622;46.220;19.878;2024-03-06T05:51:30;106.83;;;40.50;;
75941;SDS011;64622;46.220;19.878;2024-03-06T05:53:56;84.62;;;31.15;;
75941;SDS011;64622;46.220;19.878;2024-03-06T05:56:23;76.97;;;26.30;;
75941;SDS011;64622;46.220;19.878;2024-03-06T05:58:50;64.65;;;22.98;;
75941;SDS011;64622;46.220;19.878;2024-03-06T06:01:17;68.55;;;24.33;;
75941;SDS011;64622;46.220;19.878;2024-03-06T06:03:47;65.60;;;22.70;;
75941;SDS011;64622;46.220;19.878;2024-03-06T06:06:15;76.40;;;25.05;;
75941;SDS011;64622;46.220;19.878;2024-03-06T06:08:42;77.85;;;25.17;;
75941;SDS011;64622;46.220;19.878;2024-03-06T06:11:10;62.92;;;24.20;;
75941;SDS011;64622;46.220;19.878;2024-03-06T06:13:38;67.07;;;26.95;;
75941;SDS011;64622;46.220;19.878;2024-03-06T06:16:07;67.17;;;26.30;;
75941;SDS011;64622;46.220;19.878;2024-03-06T06:18:34;63.70;;;25.05;;
75941;SDS011;64622;46.220;19.878;2024-03-06T06:21:01;64.55;;;24.98;;
75941;SDS011;64622;46.220;19.878;2024-03-06T06:23:28;64.15;;;23.20;;
75941;SDS011;64622;46.220;19.878;2024-03-06T06:25:55;61.90;;;24.33;;
75941;SDS011;64622;46.220;19.878;2024-03-06T06:28:22;62.77;;;24.13;;
75941;SDS011;64622;46.220;19.878;2024-03-06T06:30:49;57.85;;;23.08;;
75941;SDS011;64622;46.220;19.878;2024-03-06T06:33:18;53.05;;;23.48;;
75941;SDS011;64622;46.220;19.878;2024-03-06T06:35:47;44.97;;;20.00;;
75941;SDS011;64622;46.220;19.878;2024-03-06T06:38:13;62.50;;;28.65;;
75941;SDS011;64622;46.220;19.878;2024-03-06T06:40:40;49.83;;;24.87;;
75941;SDS011;64622;46.220;19.878;2024-03-06T06:43:06;39.08;;;18.60;;
75941;SDS011;64622;46.220;19.878;2024-03-06T06:45:34;41.60;;;19.65;;
75941;SDS011;64622;46.220;19.878;2024-03-06T06:48:00;39.95;;;18.17;;
75941;SDS011;64622;46.220;19.878;2024-03-06T06:50:27;37.30;;;17.05;;
75941;SDS011;64622;46.220;19.878;2024-03-06T06:52:53;35.43;;;16.50;;
75941;SDS011;64622;46.220;19.878;2024-03-06T06:55:20;37.25;;;17.58;;
75941;SDS011;64622;46.220;19.878;2024-03-06T06:57:49;38.90;;;16.37;;
75941;SDS011;64622;46.220;19.878;2024-03-06T07:00:17;31.52;;;15.35;;
75941;SDS011;64622;46.220;19.878;2024-03-06T07:02:45;36.75;;;17.45;;
75941;SDS011;64622;46.220;19.878;2024-03-06T07:05:11;36.90;;;16.23;;
75941;SDS011;64622;46.220;19.878;2024-03-06T07:07:38;35.70;;;16.05;;
75941;SDS011;64622;46.220;19.878;2024-03-06T07:10:05;44.92;;;19.55;;
75941;SDS011;64622;46.220;19.878;2024-03-06T07:12:32;31.20;;;15.63;;
75941;SDS011;64622;46.220;19.878;2024-03-06T07:14:59;37.03;;;17.17;;
75941;SDS011;64622;46.220;19.878;2024-03-06T07:17:26;32.20;;;15.83;;
75941;SDS011;64622;46.220;19.878;2024-03-06T07:19:52;34.95;;;15.63;;
75941;SDS011;64622;46.220;19.878;2024-03-06T07:22:19;33.67;;;16.10;;
75941;SDS011;64622;46.220;19.878;2024-03-06T07:24:46;30.50;;;15.20;;
75941;SDS011;64622;46.220;19.878;2024-03-06T07:27:13;31.50;;;14.45;;
75941;SDS011;64622;46.220;19.878;2024-03-06T07:29:39;32.73;;;13.87;;
75941;SDS011;64622;46.220;19.878;2024-03-06T07:32:06;30.55;;;15.10;;
75941;SDS011;64622;46.220;19.878;2024-03-06T07:34:33;27.33;;;13.62;;
75941;SDS011;64622;46.220;19.878;2024-03-06T07:36:59;27.50;;;14.23;;
75941;SDS011;64622;46.220;19.878;2024-03-06T07:39:26;27.13;;;13.27;;
75941;SDS011;64622;46.220;19.878;2024-03-06T07:41:53;27.50;;;13.30;;
75941;SDS011;64622;46.220;19.878;2024-03-06T07:44:20;23.67;;;11.77;;
75941;SDS011;64622;46.220;19.878;2024-03-06T07:46:47;24.63;;;12.37;;
75941;SDS011;64622;46.220;19.878;2024-03-06T07:49:15;25.98;;;12.40;;
75941;SDS011;64622;46.220;19.878;2024-03-06T07:51:41;27.83;;;13.23;;
75941;SDS011;64622;46.220;19.878;2024-03-06T07:54:08;23.87;;;12.27;;
75941;SDS011;64622;46.220;19.878;2024-03-06T07:56:35;24.83;;;12.35;;
75941;SDS011;64622;46.220;19.878;2024-03-06T07:59:01;27.02;;;12.85;;
75941;SDS011;64622;46.220;19.878;2024-03-06T08:01:28;27.75;;;12.60;;
75941;SDS011;64622;46.220;19.878;2024-03-06T08:03:59;23.75;;;11.27;;
75941;SDS011;64622;46.220;19.878;2024-03-06T08:06:26;23.57;;;12.07;;
75941;SDS011;64622;46.220;19.878;2024-03-06T08:08:55;26.30;;;12.63;;
75941;SDS011;64622;46.220;19.878;2024-03-06T08:11:22;23.52;;;12.77;;
75941;SDS011;64622;46.220;19.878;2024-03-06T08:13:56;25.85;;;12.77;;
75941;SDS011;64622;46.220;19.878;2024-03-06T08:16:24;25.62;;;12.05;;
75941;SDS011;64622;46.220;19.878;2024-03-06T08:18:50;24.00;;;12.57;;
75941;SDS011;64622;46.220;19.878;2024-03-06T08:21:17;25.58;;;11.65;;
75941;SDS011;64622;46.220;19.878;2024-03-06T08:23:46;28.23;;;11.57;;
75941;SDS011;64622;46.220;19.878;2024-03-06T08:26:13;26.08;;;12.43;;
75941;SDS011;64622;46.220;19.878;2024-03-06T08:28:40;21.77;;;10.85;;
75941;SDS011;64622;46.220;19.878;2024-03-06T08:31:06;24.20;;;11.50;;
75941;SDS011;64622;46.220;19.878;2024-03-06T08:33:34;25.12;;;12.07;;
75941;SDS011;64622;46.220;19.878;2024-03-06T08:36:00;24.52;;;11.98;;
75941;SDS011;64622;46.220;19.878;2024-03-06T08:38:28;27.13;;;12.73;;
75941;SDS011;64622;46.220;19.878;2024-03-06T08:40:55;29.37;;;13.35;;
75941;SDS011;64622;46.220;19.878;2024-03-06T08:43:21;27.40;;;12.80;;
75941;SDS011;64622;46.220;19.878;2024-03-06T08:45:48;24.37;;;11.45;;
75941;SDS011;64622;46.220;19.878;2024-03-06T08:48:15;27.15;;;12.45;;
75941;SDS011;64622;46.220;19.878;2024-03-06T08:50:41;24.92;;;12.25;;
75941;SDS011;64622;46.220;19.878;2024-03-06T08:53:08;25.40;;;12.52;;
75941;SDS011;64622;46.220;19.878;2024-03-06T08:55:35;25.20;;;12.03;;
75941;SDS011;64622;46.220;19.878;2024-03-06T08:58:02;25.20;;;12.50;;
75941;SDS011;64622;46.220;19.878;2024-03-06T09:00:28;25.50;;;11.43;;
75941;SDS011;64622;46.220;19.878;2024-03-06T09:02:55;26.67;;;12.98;;
75941;SDS011;64622;46.220;19.878;2024-03-06T09:05:22;31.77;;;11.75;;
75941;SDS011;64622;46.220;19.878;2024-03-06T09:07:48;25.03;;;12.83;;
75941;SDS011;64622;46.220;19.878;2024-03-06T09:10:15;26.87;;;13.95;;
75941;SDS011;64622;46.220;19.878;2024-03-06T09:12:42;25.55;;;11.55;;
75941;SDS011;64622;46.220;19.878;2024-03-06T09:15:08;26.05;;;12.30;;
75941;SDS011;64622;46.220;19.878;2024-03-06T09:17:36;25.00;;;12.37;;
75941;SDS011;64622;46.220;19.878;2024-03-06T09:20:02;23.67;;;11.47;;
75941;SDS011;64622;46.220;19.878;2024-03-06T09:22:36;22.92;;;11.20;;
75941;SDS011;64622;46.220;19.878;2024-03-06T09:25:07;22.50;;;12.18;;
75941;SDS011;64622;46.220;19.878;2024-03-06T09:27:34;23.40;;;11.90;;
75941;SDS011;64622;46.220;19.878;2024-03-06T09:30:01;25.35;;;11.07;;
75941;SDS011;64622;46.220;19.878;2024-03-06T09:32:29;25.33;;;12.90;;
75941;SDS011;64622;46.220;19.878;2024-03-06T09:34:56;26.37;;;12.27;;
75941;SDS011;64622;46.220;19.878;2024-03-06T09:37:22;24.70;;;12.35;;
75941;SDS011;64622;46.220;19.878;2024-03-06T09:39:49;27.00;;;12.88;;
75941;SDS011;64622;46.220;19.878;2024-03-06T09:42:17;24.70;;;12.70;;
75941;SDS011;64622;46.220;19.878;2024-03-06T09:44:44;26.20;;;12.80;;
75941;SDS011;64622;46.220;19.878;2024-03-06T09:47:12;26.77;;;12.15;;
75941;SDS011;64622;46.220;19.878;2024-03-06T09:49:42;25.15;;;11.85;;
75941;SDS011;64622;46.220;19.878;2024-03-06T09:52:10;22.20;;;11.25;;
75941;SDS011;64622;46.220;19.878;2024-03-06T09:54:36;20.00;;;10.57;;
75941;SDS011;64622;46.220;19.878;2024-03-06T09:57:05;21.70;;;11.03;;
75941;SDS011;64622;46.220;19.878;2024-03-06T09:59:32;23.87;;;11.10;;
75941;SDS011;64622;46.220;19.878;2024-03-06T10:02:00;28.08;;;11.18;;
75941;SDS011;64622;46.220;19.878;2024-03-06T10:04:32;25.73;;;11.10;;
75941;SDS011;64622;46.220;19.878;2024-03-06T10:07:03;22.42;;;10.60;;
75941;SDS011;64622;46.220;19.878;2024-03-06T10:09:30;23.60;;;10.63;;
75941;SDS011;64622;46.220;19.878;2024-03-06T10:11:59;22.33;;;11.32;;
75941;SDS011;64622;46.220;19.878;2024-03-06T10:14:26;22.30;;;11.48;;
75941;SDS011;64622;46.220;19.878;2024-03-06T10:16:55;22.90;;;10.88;;
75941;SDS011;64622;46.220;19.878;2024-03-06T10:19:24;22.60;;;10.70;;
75941;SDS011;64622;46.220;19.878;2024-03-06T10:21:53;23.30;;;10.80;;
75941;SDS011;64622;46.220;19.878;2024-03-06T10:24:21;24.27;;;10.50;;
75941;SDS011;64622;46.220;19.878;2024-03-06T10:26:57;21.87;;;10.68;;
75941;SDS011;64622;46.220;19.878;2024-03-06T10:29:28;25.48;;;11.40;;
75941;SDS011;64622;46.220;19.878;2024-03-06T10:31:59;24.75;;;11.43;;
75941;SDS011;64622;46.220;19.878;2024-03-06T10:34:26;20.23;;;9.80;;
75941;SDS011;64622;46.220;19.878;2024-03-06T10:36:56;21.27;;;10.48;;
75941;SDS011;64622;46.220;19.878;2024-03-06T10:39:24;22.37;;;10.23;;
75941;SDS011;64622;46.220;19.878;2024-03-06T10:41:52;22.10;;;11.10;;
75941;SDS011;64622;46.220;19.878;2024-03-06T10:44:26;22.92;;;11.07;;
75941;SDS011;64622;46.220;19.878;2024-03-06T10:47:00;20.93;;;10.87;;
75941;SDS011;64622;46.220;19.878;2024-03-06T10:49:30;22.30;;;10.30;;
75941;SDS011;64622;46.220;19.878;2024-03-06T10:52:06;25.02;;;11.65;;
75941;SDS011;64622;46.220;19.878;2024-03-06T10:54:34;17.73;;;9.23;;
75941;SDS011;64622;46.220;19.878;2024-03-06T10:57:03;22.83;;;11.15;;
75941;SDS011;64622;46.220;19.878;2024-03-06T10:59:30;20.90;;;10.87;;
75941;SDS011;64622;46.220;19.878;2024-03-06T11:01:58;20.83;;;10.25;;
75941;SDS011;64622;46.220;19.878;2024-03-06T11:04:29;20.08;;;10.00;;
75941;SDS011;64622;46.220;19.878;2024-03-06T11:07:03;21.30;;;11.15;;
75941;SDS011;64622;46.220;19.878;2024-03-06T11:09:34;23.30;;;10.38;;
75941;SDS011;64622;46.220;19.878;2024-03-06T11:12:01;18.97;;;10.03;;
75941;SDS011;64622;46.220;19.878;2024-03-06T11:14:30;20.42;;;10.55;;
75941;SDS011;64622;46.220;19.878;2024-03-06T11:16:58;24.95;;;10.80;;
75941;SDS011;64622;46.220;19.878;2024-03-06T11:19:29;20.12;;;9.77;;
75941;SDS011;64622;46.220;19.878;2024-03-06T11:21:57;20.60;;;10.05;;
75941;SDS011;64622;46.220;19.878;2024-03-06T11:24:32;18.30;;;9.03;;
75941;SDS011;64622;46.220;19.878;2024-03-06T11:27:02;23.38;;;11.40;;
75941;SDS011;64622;46.220;19.878;2024-03-06T11:32:58;19.67;;;9.73;;
75941;SDS011;64622;46.220;19.878;2024-03-06T11:35:29;19.05;;;9.50;;
75941;SDS011;64622;46.220;19.878;2024-03-06T11:37:58;16.90;;;9.17;;
75941;SDS011;64622;46.220;19.878;2024-03-06T11:40:25;18.75;;;9.48;;
75941;SDS011;64622;46.220;19.878;2024-03-06T11:42:53;19.27;;;9.70;;
75941;SDS011;64622;46.220;19.878;2024-03-06T11:45:20;19.00;;;9.38;;
75941;SDS011;64622;46.220;19.878;2024-03-06T11:47:58;17.87;;;8.88;;
75941;SDS011;64622;46.220;19.878;2024-03-06T11:50:26;21.77;;;9.63;;
75941;SDS011;64622;46.220;19.878;2024-03-06T11:52:54;18.12;;;9.63;;
75941;SDS011;64622;46.220;19.878;2024-03-06T11:55:23;17.23;;;9.50;;
75941;SDS011;64622;46.220;19.878;2024-03-06T11:57:53;22.10;;;9.10;;
75941;SDS011;64622;46.220;19.878;2024-03-06T12:00:23;19.98;;;10.63;;
75941;SDS011;64622;46.220;19.878;2024-03-06T12:02:50;22.93;;;10.10;;
75941;SDS011;64622;46.220;19.878;2024-03-06T12:05:18;17.90;;;9.48;;
75941;SDS011;64622;46.220;19.878;2024-03-06T12:07:47;20.77;;;9.52;;
75941;SDS011;64622;46.220;19.878;2024-03-06T12:10:17;19.25;;;8.95;;
75941;SDS011;64622;46.220;19.878;2024-03-06T12:12:44;19.12;;;8.73;;
75941;SDS011;64622;46.220;19.878;2024-03-06T12:15:11;18.77;;;9.27;;
75941;SDS011;64622;46.220;19.878;2024-03-06T12:17:42;19.00;;;8.75;;
75941;SDS011;64622;46.220;19.878;2024-03-06T12:20:12;17.50;;;8.38;;
75941;SDS011;64622;46.220;19.878;2024-03-06T12:22:52;17.92;;;9.10;;
75941;SDS011;64622;46.220;19.878;2024-03-06T12:25:20;18.55;;;8.77;;
75941;SDS011;64622;46.220;19.878;2024-03-06T12:27:53;17.13;;;8.90;;
75941;SDS011;64622;46.220;19.878;2024-03-06T12:30:22;18.95;;;8.63;;
75941;SDS011;64622;46.220;19.878;2024-03-06T12:33:01;16.62;;;8.43;;
75941;SDS011;64622;46.220;19.878;2024-03-06T12:35:32;19.67;;;9.50;;
75941;SDS011;64622;46.220;19.878;2024-03-06T12:37:59;17.75;;;9.25;;
75941;SDS011;64622;46.220;19.878;2024-03-06T12:40:26;17.17;;;9.20;;
75941;SDS011;64622;46.220;19.878;2024-03-06T12:42:54;17.62;;;9.52;;
75941;SDS011;64622;46.220;19.878;2024-03-06T12:45:21;17.42;;;9.00;;
75941;SDS011;64622;46.220;19.878;2024-03-06T12:47:48;19.17;;;9.48;;
75941;SDS011;64622;46.220;19.878;2024-03-06T12:50:15;19.20;;;8.65;;
75941;SDS011;64622;46.220;19.878;2024-03-06T12:52:42;18.97;;;9.00;;
75941;SDS011;64622;46.220;19.878;2024-03-06T12:55:11;16.48;;;8.68;;
75941;SDS011;64622;46.220;19.878;2024-03-06T12:57:38;16.50;;;8.48;;
75941;SDS011;64622;46.220;19.878;2024-03-06T13:00:05;18.27;;;8.65;;
75941;SDS011;64622;46.220;19.878;2024-03-06T13:02:45;16.33;;;7.93;;
75941;SDS011;64622;46.220;19.878;2024-03-06T13:05:12;15.27;;;8.00;;
75941;SDS011;64622;46.220;19.878;2024-03-06T13:07:39;17.85;;;8.10;;
75941;SDS011;64622;46.220;19.878;2024-03-06T13:10:09;16.35;;;7.70;;
75941;SDS011;64622;46.220;19.878;2024-03-06T13:12:39;16.67;;;8.55;;
75941;SDS011;64622;46.220;19.878;2024-03-06T13:15:06;16.45;;;7.78;;
75941;SDS011;64622;46.220;19.878;2024-03-06T13:17:35;15.57;;;8.13;;
75941;SDS011;64622;46.220;19.878;2024-03-06T13:20:02;15.18;;;8.13;;
75941;SDS011;64622;46.220;19.878;2024-03-06T13:22:28;19.02;;;8.05;;
75941;SDS011;64622;46.220;19.878;2024-03-06T13:24:55;14.27;;;6.87;;
75941;SDS011;64622;46.220;19.878;2024-03-06T13:27:23;16.00;;;7.93;;
75941;SDS011;64622;46.220;19.878;2024-03-06T13:29:50;17.90;;;7.00;;
75941;SDS011;64622;46.220;19.878;2024-03-06T13:32:17;15.35;;;7.80;;
75941;SDS011;64622;46.220;19.878;2024-03-06T13:34:44;18.42;;;7.87;;
75941;SDS011;64622;46.220;19.878;2024-03-06T13:37:11;14.48;;;7.22;;
75941;SDS011;64622;46.220;19.878;2024-03-06T13:39:38;13.98;;;6.97;;
75941;SDS011;64622;46.220;19.878;2024-03-06T13:42:05;14.43;;;7.07;;
75941;SDS011;64622;46.220;19.878;2024-03-06T13:44:32;14.85;;;6.95;;
75941;SDS011;64622;46.220;19.878;2024-03-06T13:46:59;14.77;;;6.60;;
75941;SDS011;64622;46.220;19.878;2024-03-06T13:49:38;17.98;;;8.00;;
75941;SDS011;64622;46.220;19.878;2024-03-06T13:52:07;19.02;;;7.50;;
75941;SDS011;64622;46.220;19.878;2024-03-06T13:54:39;16.03;;;6.50;;
75941;SDS011;64622;46.220;19.878;2024-03-06T13:57:10;15.05;;;6.57;;
75941;SDS011;64622;46.220;19.878;2024-03-06T13:59:37;15.23;;;7.12;;
75941;SDS011;64622;46.220;19.878;2024-03-06T14:02:06;16.02;;;6.70;;
75941;SDS011;64622;46.220;19.878;2024-03-06T14:04:33;16.15;;;7.35;;
75941;SDS011;64622;46.220;19.878;2024-03-06T14:07:00;14.43;;;6.83;;
75941;SDS011;64622;46.220;19.878;2024-03-06T14:09:27;17.33;;;7.78;;
75941;SDS011;64622;46.220;19.878;2024-03-06T14:11:54;16.60;;;7.50;;
75941;SDS011;64622;46.220;19.878;2024-03-06T14:14:22;14.55;;;6.97;;
75941;SDS011;64622;46.220;19.878;2024-03-06T14:16:48;15.32;;;7.28;;